Time;durP1;ratioP1;P1;durP2;ratioP2;P2;SDS_P1;SDS_P2;PMS_P1;PMS_P2;Temp;Humidity;BMP_temperature;BMP_pressure;BME280_temperature;BME280_humidity;BME280_pressure;Samples;Min_cycle;Max_cycle;Signal;HPM_P1;HPM_P2
2023/12/18 00:04:19;;;;;;;13.15;8.90;;;;;;;;;;10290067;28;20081;-59
2023/12/18 00:09:20;;;;;;;12.18;7.68;;;;;;;;;;10289100;28;20085;-59
2023/12/18 00:14:21;;;;;;;13.02;8.60;;;;;;;;;;10271717;28;20080;-60
2023/12/18 00:19:23;;;;;;;13.27;8.38;;;;;;;;;;10271898;28;20455;-61
2023/12/18 00:24:24;;;;;;;13.05;8.60;;;;;;;;;;10289081;28;20458;-60
2023/12/18 00:29:24;;;;;;;13.65;8.85;;;;;;;;;;10287681;28;20031;-59
2023/12/18 00:34:25;;;;;;;20.58;8.48;;;;;;;;;;10287399;28;20372;-60
2023/12/18 00:39:26;;;;;;;16.20;8.88;;;;;;;;;;10288237;28;20034;-61
2023/12/18 00:44:26;;;;;;;14.68;8.50;;;;;;;;;;10288982;28;20030;-60
2023/12/18 00:49:28;;;;;;;17.02;8.45;;;;;;;;;;10288012;28;20348;-59
2023/12/18 00:54:28;;;;;;;13.35;8.63;;;;;;;;;;10287468;28;20173;-60
2023/12/18 00:59:29;;;;;;;11.82;7.57;;;;;;;;;;10287127;28;20037;-60
2023/12/18 01:04:30;;;;;;;14.70;8.43;;;;;;;;;;10287026;28;20383;-60
2023/12/18 01:09:30;;;;;;;19.05;8.48;;;;;;;;;;10287091;28;20027;-61
2023/12/18 01:14:31;;;;;;;13.20;8.18;;;;;;;;;;10288117;28;20035;-60
2023/12/18 01:19:31;;;;;;;10.57;7.95;;;;;;;;;;10287891;28;20038;-60
2023/12/18 01:24:32;;;;;;;15.55;7.82;;;;;;;;;;10286993;28;20023;-60
2023/12/18 01:29:33;;;;;;;13.13;8.65;;;;;;;;;;10286660;28;20023;-60
2023/12/18 01:34:33;;;;;;;13.40;8.27;;;;;;;;;;10286372;28;20027;-60
2023/12/18 01:39:34;;;;;;;10.82;7.50;;;;;;;;;;10285242;28;20494;-60
2023/12/18 01:44:35;;;;;;;9.23;7.47;;;;;;;;;;10287450;28;20066;-60
2023/12/18 01:49:36;;;;;;;11.90;7.50;;;;;;;;;;10286837;28;20419;-60
2023/12/18 01:54:36;;;;;;;10.20;7.22;;;;;;;;;;10286581;28;20458;-60
2023/12/18 01:59:37;;;;;;;12.70;7.45;;;;;;;;;;10297587;23;20572;-66
2023/12/18 02:04:38;;;;;;;11.93;7.55;;;;;;;;;;10285044;28;20027;-64
2023/12/18 02:09:41;;;;;;;9.30;7.18;;;;;;;;;;10284449;28;20034;-66
2023/12/18 02:14:42;;;;;;;10.82;7.40;;;;;;;;;;10285936;28;20027;-65
2023/12/18 02:19:43;;;;;;;10.55;7.20;;;;;;;;;;10268315;28;20385;-68
2023/12/18 02:24:43;;;;;;;8.63;7.10;;;;;;;;;;10285842;28;20034;-65
2023/12/18 02:29:44;;;;;;;12.25;7.97;;;;;;;;;;10285917;28;20042;-65
2023/12/18 02:34:44;;;;;;;15.52;7.22;;;;;;;;;;10285898;28;20263;-65
2023/12/18 02:39:45;;;;;;;10.57;7.82;;;;;;;;;;10285288;28;20031;-65
2023/12/18 02:44:46;;;;;;;17.17;7.90;;;;;;;;;;10285299;28;20030;-64
2023/12/18 02:49:46;;;;;;;8.23;6.57;;;;;;;;;;10285257;28;20023;-64
2023/12/18 02:54:47;;;;;;;8.57;6.85;;;;;;;;;;10291484;28;20039;-63
2023/12/18 02:59:47;;;;;;;10.48;6.88;;;;;;;;;;10291941;28;20102;-63
2023/12/18 03:04:48;;;;;;;10.48;7.05;;;;;;;;;;10292482;28;20031;-64
2023/12/18 03:09:48;;;;;;;11.07;7.78;;;;;;;;;;10291773;28;20023;-66
2023/12/18 03:14:49;;;;;;;10.00;7.50;;;;;;;;;;10291561;28;20057;-66
2023/12/18 03:19:50;;;;;;;8.88;6.80;;;;;;;;;;10291308;28;20030;-66
2023/12/18 03:24:50;;;;;;;9.65;7.00;;;;;;;;;;10290893;28;20038;-66
2023/12/18 03:29:51;;;;;;;10.13;6.90;;;;;;;;;;10290665;28;20031;-66
2023/12/18 03:34:51;;;;;;;8.85;6.68;;;;;;;;;;10290950;28;20035;-66
2023/12/18 03:39:52;;;;;;;9.02;6.93;;;;;;;;;;10290585;28;20049;-65
2023/12/18 03:44:53;;;;;;;11.38;6.82;;;;;;;;;;10290516;28;20030;-64
2023/12/18 03:49:53;;;;;;;9.07;7.05;;;;;;;;;;10290148;28;20081;-69
2023/12/18 03:54:54;;;;;;;9.15;6.45;;;;;;;;;;10289966;28;20030;-65
2023/12/18 03:59:54;;;;;;;12.20;7.45;;;;;;;;;;10290015;28;20430;-66
2023/12/18 04:04:55;;;;;;;8.48;6.60;;;;;;;;;;10289195;28;20070;-68
2023/12/18 04:09:55;;;;;;;7.80;6.25;;;;;;;;;;10289456;28;20382;-65
2023/12/18 04:14:56;;;;;;;8.07;6.60;;;;;;;;;;10289133;28;20546;-64
2023/12/18 04:19:56;;;;;;;7.40;6.15;;;;;;;;;;10289659;28;20382;-64
2023/12/18 04:24:57;;;;;;;10.05;6.80;;;;;;;;;;10289048;28;20115;-65
2023/12/18 04:29:58;;;;;;;8.73;6.53;;;;;;;;;;10288574;28;20386;-65
2023/12/18 04:34:58;;;;;;;9.20;6.30;;;;;;;;;;10288505;28;20027;-66
2023/12/18 04:39:59;;;;;;;8.52;6.15;;;;;;;;;;10288191;28;20063;-65
2023/12/18 04:45:00;;;;;;;11.13;7.13;;;;;;;;;;10288190;28;20105;-65
2023/12/18 04:50:00;;;;;;;7.38;6.15;;;;;;;;;;10287866;28;20026;-65
2023/12/18 04:55:01;;;;;;;8.75;5.95;;;;;;;;;;10287737;28;20037;-65
2023/12/18 05:00:02;;;;;;;7.68;6.07;;;;;;;;;;10287724;28;20054;-66
2023/12/18 05:05:03;;;;;;;7.93;6.18;;;;;;;;;;10287808;28;20098;-65
2023/12/18 05:10:04;;;;;;;9.10;6.78;;;;;;;;;;10287229;28;20033;-66
2023/12/18 05:15:06;;;;;;;8.48;6.45;;;;;;;;;;10286661;28;20372;-65
2023/12/18 05:20:08;;;;;;;7.70;6.47;;;;;;;;;;10286890;28;20059;-65
2023/12/18 05:25:12;;;;;;;8.23;6.20;;;;;;;;;;10287480;28;20035;-64
2023/12/18 05:30:13;;;;;;;7.13;5.95;;;;;;;;;;10286592;28;20057;-66
2023/12/18 05:35:13;;;;;;;7.40;6.10;;;;;;;;;;10286652;28;20037;-67
2023/12/18 05:40:14;;;;;;;8.23;6.05;;;;;;;;;;10286389;28;20054;-67
2023/12/18 05:45:15;;;;;;;8.80;6.32;;;;;;;;;;10286343;28;20026;-66
2023/12/18 05:50:15;;;;;;;8.93;6.38;;;;;;;;;;10286753;28;20605;-65
2023/12/18 05:55:16;;;;;;;8.65;6.28;;;;;;;;;;10286230;28;20482;-66
2023/12/18 06:00:18;;;;;;;7.53;6.40;;;;;;;;;;10285716;28;20055;-66
2023/12/18 06:05:19;;;;;;;10.05;5.78;;;;;;;;;;10286161;28;20035;-68
2023/12/18 06:10:20;;;;;;;9.00;6.43;;;;;;;;;;10286031;28;20031;-66
2023/12/18 06:15:20;;;;;;;10.23;6.07;;;;;;;;;;10286187;28;20383;-66
2023/12/18 06:20:21;;;;;;;9.68;6.30;;;;;;;;;;10285518;28;20027;-66
2023/12/18 06:25:21;;;;;;;7.38;6.03;;;;;;;;;;10285393;28;20093;-67
2023/12/18 06:30:22;;;;;;;14.55;6.35;;;;;;;;;;10293621;28;20027;-65
2023/12/18 06:35:23;;;;;;;9.38;6.55;;;;;;;;;;10293416;28;20035;-65
2023/12/18 06:40:23;;;;;;;10.68;6.40;;;;;;;;;;10293253;28;20355;-69
2023/12/18 06:45:24;;;;;;;8.70;7.10;;;;;;;;;;10292470;28;20057;-65
2023/12/18 06:50:24;;;;;;;10.73;7.18;;;;;;;;;;10291137;28;20030;-64
2023/12/18 06:55:25;;;;;;;11.63;8.23;;;;;;;;;;10291714;28;20038;-65
2023/12/18 07:00:28;;;;;;;15.57;8.93;;;;;;;;;;10291760;28;20043;-65
2023/12/18 07:05:29;;;;;;;14.27;9.43;;;;;;;;;;10292197;28;20031;-65
2023/12/18 07:10:30;;;;;;;14.23;9.40;;;;;;;;;;10291085;28;20502;-65
2023/12/18 07:15:30;;;;;;;15.68;10.23;;;;;;;;;;10289886;28;20030;-66
2023/12/18 07:20:31;;;;;;;15.10;9.68;;;;;;;;;;10290862;28;20031;-66
2023/12/18 07:25:31;;;;;;;17.45;10.25;;;;;;;;;;10290997;28;20148;-66
2023/12/18 07:30:32;;;;;;;18.90;10.25;;;;;;;;;;10291402;28;20103;-66
2023/12/18 07:35:33;;;;;;;27.35;10.13;;;;;;;;;;10290810;28;20027;-65
2023/12/18 07:40:33;;;;;;;16.15;10.07;;;;;;;;;;10290491;28;20025;-66
2023/12/18 07:45:34;;;;;;;13.50;8.98;;;;;;;;;;10290399;28;20035;-66
2023/12/18 07:50:35;;;;;;;18.13;8.90;;;;;;;;;;10273466;28;20226;-66
2023/12/18 07:55:35;;;;;;;17.20;9.57;;;;;;;;;;10289834;28;20039;-65
2023/12/18 08:00:36;;;;;;;18.35;9.65;;;;;;;;;;10289698;28;20062;-66
2023/12/18 08:05:36;;;;;;;13.82;8.90;;;;;;;;;;10290159;28;20035;-65
2023/12/18 08:10:37;;;;;;;13.15;8.98;;;;;;;;;;10289522;28;20029;-65
2023/12/18 08:15:38;;;;;;;13.85;9.60;;;;;;;;;;10288919;28;20035;-65
2023/12/18 08:20:39;;;;;;;15.02;9.38;;;;;;;;;;10272301;28;20035;-66
2023/12/18 08:25:40;;;;;;;16.08;9.18;;;;;;;;;;10272284;28;20387;-66
2023/12/18 08:30:41;;;;;;;16.10;9.75;;;;;;;;;;10271768;28;20463;-66
2023/12/18 08:35:42;;;;;;;14.45;9.15;;;;;;;;;;10271778;28;20050;-66
2023/12/18 08:40:44;;;;;;;16.90;8.50;;;;;;;;;;10270942;28;20426;-65
2023/12/18 08:45:45;;;;;;;17.83;9.18;;;;;;;;;;10271705;28;20031;-65
2023/12/18 08:50:46;;;;;;;18.92;9.82;;;;;;;;;;10267958;28;20069;-66
2023/12/18 08:55:47;;;;;;;13.68;9.48;;;;;;;;;;10252469;28;20049;-66
2023/12/18 09:00:47;;;;;;;16.27;8.95;;;;;;;;;;10270113;28;20281;-66
2023/12/18 09:05:48;;;;;;;15.63;9.68;;;;;;;;;;10270612;28;20038;-66
2023/12/18 09:10:48;;;;;;;17.17;8.95;;;;;;;;;;10270341;28;20034;-66
2023/12/18 09:15:49;;;;;;;19.45;8.82;;;;;;;;;;10269807;28;20031;-66
2023/12/18 09:20:49;;;;;;;12.60;9.07;;;;;;;;;;10269383;28;20069;-66
2023/12/18 09:25:50;;;;;;;14.07;8.80;;;;;;;;;;10281264;28;20066;-66
2023/12/18 09:30:51;;;;;;;15.90;9.00;;;;;;;;;;10267984;28;20033;-66
2023/12/18 09:35:51;;;;;;;15.63;9.00;;;;;;;;;;10268698;28;20035;-66
2023/12/18 09:40:52;;;;;;;11.77;8.63;;;;;;;;;;10267464;28;20026;-66
2023/12/18 09:45:54;;;;;;;12.77;8.98;;;;;;;;;;10267784;28;20035;-66
2023/12/18 09:50:55;;;;;;;11.63;8.10;;;;;;;;;;10250857;28;20027;-66
2023/12/18 09:55:56;;;;;;;12.80;8.27;;;;;;;;;;10268035;28;20039;-66
2023/12/18 10:00:59;;;;;;;12.70;8.32;;;;;;;;;;10268764;28;20042;-66
2023/12/18 10:06:00;;;;;;;12.82;8.07;;;;;;;;;;10276326;28;20034;-66
2023/12/18 10:11:03;;;;;;;11.75;8.25;;;;;;;;;;10259518;28;20285;-66
2023/12/18 10:16:04;;;;;;;16.45;8.60;;;;;;;;;;10288182;28;20506;-66
2023/12/18 10:21:04;;;;;;;12.40;7.93;;;;;;;;;;10290469;28;20038;-68
2023/12/18 10:26:05;;;;;;;17.65;8.02;;;;;;;;;;10276346;28;20046;-66
2023/12/18 10:31:08;;;;;;;15.75;8.55;;;;;;;;;;10284053;28;20092;-66
2023/12/18 10:36:09;;;;;;;13.85;8.65;;;;;;;;;;10288304;28;20038;-66
2023/12/18 10:41:11;;;;;;;8.73;7.00;;;;;;;;;;10275533;28;20023;-66
2023/12/18 10:46:13;;;;;;;9.55;7.65;;;;;;;;;;10288014;28;20061;-66
2023/12/18 10:51:14;;;;;;;10.82;8.15;;;;;;;;;;10274937;28;20027;-66
2023/12/18 10:56:17;;;;;;;11.60;7.72;;;;;;;;;;10292711;28;20142;-66
2023/12/18 11:01:19;;;;;;;15.23;8.20;;;;;;;;;;10274944;28;20054;-66
2023/12/18 11:06:20;;;;;;;10.60;7.38;;;;;;;;;;10292237;28;20042;-66
2023/12/18 11:11:22;;;;;;;11.90;7.43;;;;;;;;;;10291861;28;20033;-67
2023/12/18 11:17:02;;;;;;;8.88;7.47;;;;;;;;;;10286442;28;20035;-66
2023/12/18 11:22:04;;;;;;;11.45;7.65;;;;;;;;;;10273434;28;20027;-66
2023/12/18 11:27:06;;;;;;;9.48;7.13;;;;;;;;;;10257012;28;20466;-65
2023/12/18 11:32:09;;;;;;;9.50;7.50;;;;;;;;;;10272987;28;20109;-67
2023/12/18 11:37:11;;;;;;;9.48;7.18;;;;;;;;;;10272650;28;20035;-67
2023/12/18 11:42:12;;;;;;;9.48;6.70;;;;;;;;;;10272820;28;20058;-67
2023/12/18 11:47:13;;;;;;;10.57;7.88;;;;;;;;;;10271399;28;20031;-68
2023/12/18 11:52:19;;;;;;;10.57;7.60;;;;;;;;;;10254931;28;20038;-65
2023/12/18 11:57:21;;;;;;;9.98;7.32;;;;;;;;;;10274958;28;20478;-65
2023/12/18 12:02:23;;;;;;;9.38;7.03;;;;;;;;;;10289346;28;20050;-65
2023/12/18 12:07:24;;;;;;;12.13;7.20;;;;;;;;;;10268593;28;20062;-65
2023/12/18 12:12:24;;;;;;;10.45;6.78;;;;;;;;;;10288407;28;20026;-65
2023/12/18 12:17:25;;;;;;;11.60;7.95;;;;;;;;;;10289731;28;20033;-65
2023/12/18 12:22:27;;;;;;;11.85;7.68;;;;;;;;;;10288183;28;20038;-65
2023/12/18 12:27:29;;;;;;;10.95;7.47;;;;;;;;;;10286879;28;20078;-66
2023/12/18 12:32:30;;;;;;;12.65;7.65;;;;;;;;;;10288231;28;20114;-66
2023/12/18 12:37:31;;;;;;;10.50;7.03;;;;;;;;;;10268858;28;20041;-66
2023/12/18 12:42:33;;;;;;;10.50;6.97;;;;;;;;;;10287315;28;20463;-66
2023/12/18 12:47:33;;;;;;;8.05;6.82;;;;;;;;;;10283464;28;20041;-66
2023/12/18 12:52:38;;;;;;;11.32;7.30;;;;;;;;;;10285076;28;20027;-66
2023/12/18 12:57:38;;;;;;;12.85;6.85;;;;;;;;;;10285424;28;20033;-67
2023/12/18 13:02:39;;;;;;;11.80;7.43;;;;;;;;;;10282866;28;20035;-67
2023/12/18 13:07:39;;;;;;;10.95;7.60;;;;;;;;;;10286745;28;20085;-66
2023/12/18 13:12:40;;;;;;;15.25;6.68;;;;;;;;;;10287336;28;20026;-67
2023/12/18 13:17:41;;;;;;;10.20;6.45;;;;;;;;;;10286100;28;20077;-67
2023/12/18 13:22:41;;;;;;;10.20;6.35;;;;;;;;;;10286879;28;20135;-67
2023/12/18 13:27:42;;;;;;;11.60;6.82;;;;;;;;;;10287332;28;20030;-67
2023/12/18 13:32:42;;;;;;;10.05;7.25;;;;;;;;;;10285651;28;20042;-67
2023/12/18 13:37:43;;;;;;;10.82;6.47;;;;;;;;;;10269173;28;20486;-67
2023/12/18 13:42:44;;;;;;;9.30;6.68;;;;;;;;;;10286611;28;20034;-67
2023/12/18 13:47:44;;;;;;;12.40;6.75;;;;;;;;;;10280456;28;20061;-67
2023/12/18 13:52:45;;;;;;;9.18;6.50;;;;;;;;;;10280224;28;20383;-67
2023/12/18 13:57:45;;;;;;;9.20;6.32;;;;;;;;;;10269170;28;20494;-67
2023/12/18 14:02:46;;;;;;;10.18;6.20;;;;;;;;;;10284759;28;20541;-66
2023/12/18 14:07:46;;;;;;;9.57;6.57;;;;;;;;;;10284922;28;20486;-67
2023/12/18 14:12:47;;;;;;;10.32;6.97;;;;;;;;;;10267503;28;20490;-67
2023/12/18 14:17:48;;;;;;;9.15;5.97;;;;;;;;;;10265746;28;20031;-67
2023/12/18 14:22:48;;;;;;;9.48;6.75;;;;;;;;;;10272868;28;20482;-68
2023/12/18 14:27:49;;;;;;;8.13;6.38;;;;;;;;;;10267187;28;20479;-68
2023/12/18 14:32:50;;;;;;;8.20;5.45;;;;;;;;;;10282705;28;20471;-66
2023/12/18 14:37:50;;;;;;;7.90;6.43;;;;;;;;;;10283539;28;20023;-67
2023/12/18 14:42:51;;;;;;;8.60;5.90;;;;;;;;;;10282957;28;20031;-68
2023/12/18 14:47:51;;;;;;;9.38;6.25;;;;;;;;;;10282170;28;20061;-67
2023/12/18 14:52:53;;;;;;;9.20;6.80;;;;;;;;;;10291371;28;20085;-67
2023/12/18 14:57:55;;;;;;;11.48;6.53;;;;;;;;;;10288682;28;20077;-66
2023/12/18 15:02:55;;;;;;;12.88;6.53;;;;;;;;;;10291990;28;20050;-67
2023/12/18 15:07:56;;;;;;;9.55;6.40;;;;;;;;;;10290884;28;20026;-67
2023/12/18 15:12:57;;;;;;;12.07;6.68;;;;;;;;;;10291241;28;20041;-67
2023/12/18 15:17:57;;;;;;;12.07;6.35;;;;;;;;;;10291069;28;20031;-67
2023/12/18 15:22:58;;;;;;;11.52;6.90;;;;;;;;;;10290773;28;20086;-67
2023/12/18 15:27:59;;;;;;;7.47;5.88;;;;;;;;;;10290264;28;20123;-68
2023/12/18 15:33:00;;;;;;;7.55;5.70;;;;;;;;;;10289927;28;20650;-68
2023/12/18 15:38:00;;;;;;;9.15;6.10;;;;;;;;;;10290253;28;20031;-68
2023/12/18 15:43:01;;;;;;;9.10;6.35;;;;;;;;;;10290874;28;20069;-68
2023/12/18 15:48:02;;;;;;;8.45;5.88;;;;;;;;;;10290194;28;20031;-68
2023/12/18 15:53:02;;;;;;;11.32;6.22;;;;;;;;;;10273365;28;20117;-68
2023/12/18 15:58:03;;;;;;;8.35;5.97;;;;;;;;;;10288288;28;20030;-67
2023/12/18 16:03:04;;;;;;;9.13;6.18;;;;;;;;;;10288710;28;20133;-68
2023/12/18 16:08:05;;;;;;;9.98;6.03;;;;;;;;;;10289717;28;20035;-68
2023/12/18 16:13:06;;;;;;;10.00;6.22;;;;;;;;;;10271598;28;20030;-68
2023/12/18 16:18:06;;;;;;;7.82;5.93;;;;;;;;;;10288509;28;20022;-67
2023/12/18 16:23:07;;;;;;;8.43;6.22;;;;;;;;;;10288483;28;20037;-68
2023/12/18 16:28:07;;;;;;;9.38;5.97;;;;;;;;;;10288602;28;20025;-67
2023/12/18 16:33:08;;;;;;;10.90;7.10;;;;;;;;;;10288212;28;20034;-67
2023/12/18 16:38:09;;;;;;;8.25;6.03;;;;;;;;;;10287941;28;20019;-67
2023/12/18 16:43:09;;;;;;;11.60;7.38;;;;;;;;;;10287720;28;20533;-68
2023/12/18 16:48:11;;;;;;;9.68;6.68;;;;;;;;;;10287240;28;20478;-68
2023/12/18 16:53:11;;;;;;;8.73;7.10;;;;;;;;;;10287705;28;20023;-68
2023/12/18 16:58:12;;;;;;;9.38;6.65;;;;;;;;;;10287306;28;20398;-68
2023/12/18 17:03:14;;;;;;;12.02;6.95;;;;;;;;;;10287117;28;20097;-68
2023/12/18 17:08:15;;;;;;;10.73;7.70;;;;;;;;;;10287073;28;20275;-68
2023/12/18 17:13:15;;;;;;;12.35;7.28;;;;;;;;;;10268350;28;20023;-71
2023/12/18 17:18:16;;;;;;;10.95;7.57;;;;;;;;;;10285639;28;20093;-69
2023/12/18 17:23:16;;;;;;;11.15;7.45;;;;;;;;;;10275991;28;20030;-69
2023/12/18 17:28:17;;;;;;;11.45;7.45;;;;;;;;;;10284639;28;20045;-68
2023/12/18 17:33:18;;;;;;;12.30;7.55;;;;;;;;;;10268793;28;20034;-67
2023/12/18 17:38:22;;;;;;;13.85;8.15;;;;;;;;;;10284084;28;20382;-71
2023/12/18 17:43:23;;;;;;;12.90;7.97;;;;;;;;;;10283946;28;20067;-70
2023/12/18 17:48:24;;;;;;;13.70;8.07;;;;;;;;;;10278270;28;20471;-69
2023/12/18 17:53:26;;;;;;;9.52;7.45;;;;;;;;;;10281897;28;20070;-69
2023/12/18 17:58:26;;;;;;;11.80;7.18;;;;;;;;;;10284228;28;20234;-69
2023/12/18 18:03:27;;;;;;;27.10;8.38;;;;;;;;;;10280043;28;20251;-69
2023/12/18 18:08:28;;;;;;;16.10;7.40;;;;;;;;;;10267426;28;20482;-69
2023/12/18 18:13:28;;;;;;;11.30;8.50;;;;;;;;;;10266462;28;20022;-68
2023/12/18 18:18:29;;;;;;;35.38;8.10;;;;;;;;;;10266445;28;20019;-69
2023/12/18 18:23:29;;;;;;;11.23;8.48;;;;;;;;;;10269020;28;20035;-69
2023/12/18 18:28:30;;;;;;;14.63;8.63;;;;;;;;;;10278114;28;20026;-69
2023/12/18 18:33:32;;;;;;;9.38;7.95;;;;;;;;;;10291611;28;20027;-70
2023/12/18 18:38:33;;;;;;;16.23;8.80;;;;;;;;;;10293514;28;20027;-69
2023/12/18 18:43:35;;;;;;;20.17;9.38;;;;;;;;;;10293279;28;20054;-68
2023/12/18 18:48:38;;;;;;;18.70;9.30;;;;;;;;;;10291028;28;20030;-68
2023/12/18 18:53:39;;;;;;;26.08;10.27;;;;;;;;;;10287817;28;20030;-68
2023/12/18 18:58:39;;;;;;;20.73;9.38;;;;;;;;;;10284223;28;20038;-68
2023/12/18 19:03:40;;;;;;;16.35;10.13;;;;;;;;;;10289063;28;20063;-67
2023/12/18 19:08:41;;;;;;;15.27;8.95;;;;;;;;;;10285813;28;20106;-68
2023/12/18 19:13:42;;;;;;;20.75;10.13;;;;;;;;;;10290502;28;20442;-68
2023/12/18 19:18:42;;;;;;;14.57;9.10;;;;;;;;;;10286088;28;20364;-67
2023/12/18 19:23:43;;;;;;;18.42;9.48;;;;;;;;;;10289672;28;20027;-68
2023/12/18 19:28:44;;;;;;;14.88;9.60;;;;;;;;;;10283269;28;20035;-69
2023/12/18 19:33:44;;;;;;;16.00;8.93;;;;;;;;;;10281917;28;20089;-68
2023/12/18 19:38:46;;;;;;;14.88;9.95;;;;;;;;;;10288885;28;20041;-69
2023/12/18 19:43:46;;;;;;;18.50;9.35;;;;;;;;;;10280319;28;20030;-68
2023/12/18 19:48:47;;;;;;;15.02;9.85;;;;;;;;;;10278861;28;20038;-68
2023/12/18 19:53:48;;;;;;;13.95;9.23;;;;;;;;;;10284484;28;20027;-69
2023/12/18 19:58:48;;;;;;;15.07;9.50;;;;;;;;;;10284845;28;20030;-67
2023/12/18 20:03:49;;;;;;;11.75;7.25;;;;;;;;;;10288235;28;20041;-67
2023/12/18 20:08:50;;;;;;;15.57;8.75;;;;;;;;;;10289221;28;20479;-68
2023/12/18 20:13:51;;;;;;;16.30;10.48;;;;;;;;;;10284217;28;20037;-69
2023/12/18 20:18:51;;;;;;;17.63;9.43;;;;;;;;;;10286573;28;20022;-69
2023/12/18 20:23:52;;;;;;;17.65;10.23;;;;;;;;;;10287537;28;20463;-69
2023/12/18 20:28:53;;;;;;;12.82;9.15;;;;;;;;;;10287500;28;20026;-69
2023/12/18 20:33:53;;;;;;;15.82;11.00;;;;;;;;;;10288165;28;20088;-69
2023/12/18 20:38:54;;;;;;;14.07;10.55;;;;;;;;;;10281465;28;20033;-69
2023/12/18 20:43:54;;;;;;;17.40;10.93;;;;;;;;;;10283666;28;20066;-67
2023/12/18 20:48:55;;;;;;;28.50;12.27;;;;;;;;;;10283614;28;20038;-67
2023/12/18 20:53:56;;;;;;;27.83;11.70;;;;;;;;;;10285931;28;20019;-67
2023/12/18 20:58:56;;;;;;;20.75;11.30;;;;;;;;;;10282514;28;20026;-67
2023/12/18 21:03:58;;;;;;;17.15;10.73;;;;;;;;;;10285950;28;20041;-67
2023/12/18 21:08:59;;;;;;;20.92;11.55;;;;;;;;;;10286984;28;20382;-67
2023/12/18 21:13:59;;;;;;;17.90;10.00;;;;;;;;;;10286840;28;20030;-67
2023/12/18 21:19:00;;;;;;;19.88;10.90;;;;;;;;;;10286612;28;20031;-67
2023/12/18 21:24:01;;;;;;;16.88;10.57;;;;;;;;;;10284858;28;20034;-67
2023/12/18 21:29:02;;;;;;;18.08;10.68;;;;;;;;;;10279784;28;20027;-67
2023/12/18 21:34:03;;;;;;;17.50;10.70;;;;;;;;;;10277208;28;20042;-67
2023/12/18 21:39:04;;;;;;;19.83;10.75;;;;;;;;;;10280448;28;20077;-67
2023/12/18 21:44:04;;;;;;;17.55;10.85;;;;;;;;;;10285927;28;20027;-67
2023/12/18 21:49:05;;;;;;;22.13;11.00;;;;;;;;;;10286476;28;20101;-67
2023/12/18 21:54:05;;;;;;;22.60;10.32;;;;;;;;;;10285879;28;20128;-67
2023/12/18 21:59:06;;;;;;;17.40;11.07;;;;;;;;;;10291791;28;20043;-67
2023/12/18 22:04:07;;;;;;;16.45;10.10;;;;;;;;;;10294443;28;20027;-67
2023/12/18 22:09:09;;;;;;;12.73;9.80;;;;;;;;;;10291549;28;20045;-67
2023/12/18 22:14:10;;;;;;;18.52;10.75;;;;;;;;;;10292680;28;20410;-68
2023/12/18 22:19:10;;;;;;;23.88;11.98;;;;;;;;;;10287980;28;20066;-68
2023/12/18 22:24:11;;;;;;;18.63;11.00;;;;;;;;;;10287992;28;20027;-68
2023/12/18 22:29:11;;;;;;;16.98;11.63;;;;;;;;;;10291720;28;20031;-68
2023/12/18 22:34:12;;;;;;;14.40;10.57;;;;;;;;;;10292873;28;20042;-68
2023/12/18 22:39:12;;;;;;;19.10;11.10;;;;;;;;;;10291979;28;20271;-68
2023/12/18 22:44:13;;;;;;;14.98;10.55;;;;;;;;;;10292437;28;20386;-68
2023/12/18 22:49:14;;;;;;;16.98;11.57;;;;;;;;;;10288033;28;20470;-68
2023/12/18 22:54:14;;;;;;;14.70;10.75;;;;;;;;;;10288060;28;20089;-67
2023/12/18 22:59:15;;;;;;;17.48;10.75;;;;;;;;;;10286972;28;20410;-68
2023/12/18 23:04:15;;;;;;;16.75;10.80;;;;;;;;;;10284539;28;20415;-68
2023/12/18 23:09:16;;;;;;;15.45;11.00;;;;;;;;;;10290686;28;20113;-69
2023/12/18 23:14:17;;;;;;;21.08;14.35;;;;;;;;;;10285910;28;20089;-67
2023/12/18 23:19:17;;;;;;;23.75;16.50;;;;;;;;;;10289748;28;20054;-69
2023/12/18 23:24:18;;;;;;;22.80;17.80;;;;;;;;;;10291419;28;20124;-68
2023/12/18 23:29:19;;;;;;;23.52;18.35;;;;;;;;;;10291195;28;20053;-70
2023/12/18 23:34:20;;;;;;;26.15;17.70;;;;;;;;;;10285968;28;20031;-68
2023/12/18 23:39:20;;;;;;;26.45;18.85;;;;;;;;;;10290179;28;20159;-69
2023/12/18 23:44:21;;;;;;;23.73;18.83;;;;;;;;;;10289899;28;20093;-68
2023/12/18 23:49:22;;;;;;;31.75;19.45;;;;;;;;;;10289607;28;20030;-71
2023/12/18 23:54:23;;;;;;;26.45;18.05;;;;;;;;;;10290353;28;20038;-68
2023/12/18 23:59:23;;;;;;;25.63;18.92;;;;;;;;;;10288849;28;20054;-69
